1890 Tropical Storm NOT_NAMED (1890231N14298)


IBTrACS version v04r00. Visit IBTrACS website for data access.
Please direct all questions to the IBTrACS Q and A forum

Storm track - Intensity - Wind Radii - Intensity Data - Source Data - All data

Summary Information

Storm ID 1890231N14298
Start Aug 18 12Z
Landfall Aug 27 15Z
Max Intensity 50 kt (Aug 24 00Z)
End Aug 28 18Z
ATCF IDs ,AL021890
Track status Best track data.

Storm track plot

Map of storm track

Intensity plots

Map of storm track

Radial wind information

No radial wind information for this storm


Position and Intensity Table

BASIN ISO_TIME_________ NATURE LAT LON WMO WIND USA WIND MLC WIND
degrees north degrees east kts kts kts
NA 1890-08-18 12:00:00 TS 14.00 -62.00 35 35
NA 15:00:00 TS 14.10 -62.40 35
NA 18:00:00 TS 14.20 -62.80 35 35
NA 21:00:00 TS 14.31 -63.20 37
NA 1890-08-19 00:00:00 TS 14.40 -63.60 40 40
NA 03:00:00 TS 14.45 -63.98 40
NA 06:00:00 TS 14.50 -64.40 40 40
NA 09:00:00 TS 14.60 -64.95 40
NA 12:00:00 TS 14.70 -65.50 40 40
NA 15:00:00 TS 14.75 -65.92 40
NA 18:00:00 TS 14.80 -66.30 40 40
NA 21:00:00 TS 14.90 -66.74 40
NA 1890-08-20 00:00:00 TS 15.00 -67.20 40 40
NA 03:00:00 TS 15.05 -67.65 40
NA 06:00:00 TS 15.10 -68.10 40 40
NA 09:00:00 TS 15.20 -68.54 40
NA 12:00:00 TS 15.30 -69.00 40 40
NA 15:00:00 TS 15.36 -69.50 40
NA 18:00:00 TS 15.40 -70.00 40 40
NA 21:00:00 TS 15.45 -70.47 40
NA 1890-08-21 00:00:00 TS 15.50 -70.90 40 40
NA 03:00:00 TS 15.55 -71.31 40
NA 06:00:00 TS 15.60 -71.70 40 40
NA 09:00:00 TS 15.64 -72.08 40
NA 12:00:00 TS 15.70 -72.50 40 40
NA 15:00:00 TS 15.80 -73.04 40
NA 18:00:00 TS 15.90 -73.60 40 40
NA 21:00:00 TS 15.95 -74.06 40
NA 1890-08-22 00:00:00 TS 16.00 -74.50 40 40
NA 03:00:00 TS 16.08 -74.99 40
NA 06:00:00 TS 16.20 -75.50 40 40
NA 09:00:00 TS 16.35 -76.01 40
NA 12:00:00 TS 16.50 -76.50 40 40
NA 15:00:00 TS 16.61 -76.91 40
NA 18:00:00 TS 16.70 -77.30 40 40
NA 21:00:00 TS 16.79 -77.75 42
NA 1890-08-23 00:00:00 TS 16.90 -78.20 45 45
NA 03:00:00 TS 17.04 -78.59 45
NA 06:00:00 TS 17.20 -79.00 45 45
NA 09:00:00 TS 17.35 -79.49 45
NA 12:00:00 TS 17.39 -80.00 45 45 30
NA 15:00:00 TS 17.50 -80.45 45 30
NA 18:00:00 TS 17.66 -80.87 45 45 30
NA 21:00:00 TS 17.88 -81.26 47 30
NA 1890-08-24 00:00:00 TS 18.13 -81.63 50 50 30
NA 03:00:00 TS 18.40 -82.03 50 30
NA 06:00:00 TS 18.67 -82.43 50 50 30
NA 09:00:00 TS 18.91 -82.81 50 32
NA 12:00:00 TS 19.17 -83.20 50 50 35
NA 15:00:00 TS 19.49 -83.61 50 37
NA 18:00:00 TS 19.83 -84.03 50 50 40
NA 21:00:00 TS 20.14 -84.45 50 42
NA 1890-08-25 00:00:00 TS 20.47 -84.87 50 50 45
NA 03:00:00 TS 20.83 -85.31 50 45
NA 06:00:00 TS 21.20 -85.77 50 50 45
NA 09:00:00 TS 21.52 -86.20 50 45
NA 12:00:00 TS 21.83 -86.63 50 50 45
NA 15:00:00 TS 22.19 -87.08 50 45
NA 18:00:00 TS 22.57 -87.53 50 50 45
NA 21:00:00 TS 22.94 -87.97 50 45
NA 1890-08-26 00:00:00 TS 23.30 -88.40 50 50 45
NA 03:00:00 TS 23.63 -88.82 50 45
NA 06:00:00 TS 23.97 -89.23 50 50 45
NA 09:00:00 TS 24.37 -89.67 50 45
NA 12:00:00 TS 24.80 -90.07 50 50 45
NA 15:00:00 TS 25.22 -90.35 50 45
NA 18:00:00 TS 25.67 -90.57 50 50 45
NA 21:00:00 TS 26.16 -90.75 50 45
NA 1890-08-27 00:00:00 TS 26.67 -90.90 50 50 45
NA 03:00:00 TS 27.16 -91.03 50 45
NA 06:00:00 TS 27.67 -91.13 50 50 45
NA 09:00:00 TS 28.19 -91.26 50 45
NA 12:00:00 TS 28.77 -91.33 50 50 45
NA 15:00:00 TS 29.45 -91.31 50 42
NA 16:00:00 TS 29.66 -91.28 50 50 41
NA 18:00:00 TS 30.00 -91.20 40 40 40
NA 21:00:00 TS 30.70 -91.09 37 37
NA 1890-08-28 00:00:00 TS 31.58 -91.02 35 35 35
NA 03:00:00 TS 32.39 -90.94 32 32
NA 06:00:00 TS 32.93 -90.80 30 30 30
NA 09:00:00 TS 32.71 -90.47 30
NA 12:00:00 TS 33.00 -89.50 30
NA 15:00:00 TS 33.26 -88.42 30
NA 18:00:00 TS 33.50 -87.30 30

Source Information

Agency Information
USA hurdat2-1851-2019-042820.txt:Line=6672:UNNAMED
TOKYO
CMA
HKO
NEWDELHI
REUNION
BOM
NADI
WELLINGTON
DS824
TD9636
TD9635
NEUMANN
MLC

All available IBTrACS Data

SEASON BASIN SUBBASIN ISO_TIME_________ NATURE LAT LON WMO WIND WMO AGENCY DIST2LAND LANDFALL IFLAG USA AGENCY USA ATCF_ID USA LAT USA LON USA RECORD USA STATUS USA WIND USA SSHS MLC LAT MLC LON MLC CLASS MLC WIND STORM SPEED STORM DIR
Year degrees north degrees east kts km km degrees north degrees east kts 1 degrees north degrees east kts kts degrees
1890 NA CS 1890-08-18 12:00:00 TS 14.00 -62.00 35 hurdat_atl 370 369 O_____________ hurdat_atl AL021890 14.00 -62.00 TS 35 0 8 284
1890 NA CS 15:00:00 TS 14.10 -62.40 380 380 P_____________ AL021890 14.10 -62.40 TS 35 0 8 284
1890 NA CS 18:00:00 TS 14.20 -62.80 35 hurdat_atl 391 391 O_____________ hurdat_atl AL021890 14.20 -62.80 TS 35 0 8 285
1890 NA CS 21:00:00 TS 14.31 -63.20 403 403 P_____________ AL021890 14.31 -63.20 TS 37 0 8 284
1890 NA CS 1890-08-19 00:00:00 TS 14.40 -63.60 40 hurdat_atl 417 417 O_____________ hurdat_atl AL021890 14.40 -63.60 TS 40 0 8 281
1890 NA CS 03:00:00 TS 14.45 -63.98 425 419 P_____________ AL021890 14.45 -63.98 TS 40 0 8 277
1890 NA CS 06:00:00 TS 14.50 -64.40 40 hurdat_atl 419 392 O_____________ hurdat_atl AL021890 14.50 -64.40 TS 40 0 10 279
1890 NA CS 09:00:00 TS 14.60 -64.95 392 365 P_____________ AL021890 14.60 -64.95 TS 40 0 11 281
1890 NA CS 12:00:00 TS 14.70 -65.50 40 hurdat_atl 365 359 O_____________ hurdat_atl AL021890 14.70 -65.50 TS 40 0 9 279
1890 NA CS 15:00:00 TS 14.75 -65.92 359 346 P_____________ AL021890 14.75 -65.92 TS 40 0 8 277
1890 NA CS 18:00:00 TS 14.80 -66.30 40 hurdat_atl 347 336 O_____________ hurdat_atl AL021890 14.80 -66.30 TS 40 0 8 281
1890 NA CS 21:00:00 TS 14.90 -66.74 336 324 P_____________ AL021890 14.90 -66.74 TS 40 0 9 283
1890 NA CS 1890-08-20 00:00:00 TS 15.00 -67.20 40 hurdat_atl 324 324 O_____________ hurdat_atl AL021890 15.00 -67.20 TS 40 0 9 280
1890 NA CS 03:00:00 TS 15.05 -67.65 328 317 P_____________ AL021890 15.05 -67.65 TS 40 0 9 277
1890 NA CS 06:00:00 TS 15.10 -68.10 40 hurdat_atl 327 324 O_____________ hurdat_atl AL021890 15.10 -68.10 TS 40 0 9 280
1890 NA CS 09:00:00 TS 15.20 -68.54 332 324 P_____________ AL021890 15.20 -68.54 TS 40 0 9 283
1890 NA CS 12:00:00 TS 15.30 -69.00 40 hurdat_atl 325 318 O_____________ hurdat_atl AL021890 15.30 -69.00 TS 40 0 9 280
1890 NA CS 15:00:00 TS 15.36 -69.50 318 287 P_____________ AL021890 15.36 -69.50 TS 40 0 10 276
1890 NA CS 18:00:00 TS 15.40 -70.00 40 hurdat_atl 287 268 O_____________ hurdat_atl AL021890 15.40 -70.00 TS 40 0 9 276
1890 NA CS 21:00:00 TS 15.45 -70.47 264 240 P_____________ AL021890 15.45 -70.47 TS 40 0 9 277
1890 NA CS 1890-08-21 00:00:00 TS 15.50 -70.90 40 hurdat_atl 240 235 O_____________ hurdat_atl AL021890 15.50 -70.90 TS 40 0 8 277
1890 NA CS 03:00:00 TS 15.55 -71.31 235 223 P_____________ AL021890 15.55 -71.31 TS 40 0 8 277
1890 NA CS 06:00:00 TS 15.60 -71.70 40 hurdat_atl 226 226 O_____________ hurdat_atl AL021890 15.60 -71.70 TS 40 0 7 277
1890 NA CS 09:00:00 TS 15.64 -72.08 235 229 P_____________ AL021890 15.64 -72.08 TS 40 0 8 277
1890 NA CS 12:00:00 TS 15.70 -72.50 40 hurdat_atl 242 242 O_____________ hurdat_atl AL021890 15.70 -72.50 TS 40 0 9 280
1890 NA CS 15:00:00 TS 15.80 -73.04 258 235 P_____________ AL021890 15.80 -73.04 TS 40 0 11 281
1890 NA CS 18:00:00 TS 15.90 -73.60 40 hurdat_atl 235 235 O_____________ hurdat_atl AL021890 15.90 -73.60 TS 40 0 10 279
1890 NA CS 21:00:00 TS 15.95 -74.06 235 224 P_____________ AL021890 15.95 -74.06 TS 40 0 9 277
1890 NA CS 1890-08-22 00:00:00 TS 16.00 -74.50 40 hurdat_atl 232 232 O_____________ hurdat_atl AL021890 16.00 -74.50 TS 40 0 9 279
1890 NA CS 03:00:00 TS 16.08 -74.99 238 204 P_____________ AL021890 16.08 -74.99 TS 40 0 10 282
1890 NA CS 06:00:00 TS 16.20 -75.50 40 hurdat_atl 204 180 O_____________ hurdat_atl AL021890 16.20 -75.50 TS 40 0 10 285
1890 NA CS 09:00:00 TS 16.35 -76.01 180 153 P_____________ AL021890 16.35 -76.01 TS 40 0 10 287
1890 NA CS 12:00:00 TS 16.50 -76.50 40 hurdat_atl 153 127 O_____________ hurdat_atl AL021890 16.50 -76.50 TS 40 0 9 287
1890 NA CS 15:00:00 TS 16.61 -76.91 127 111 P_____________ AL021890 16.61 -76.91 TS 40 0 8 285
1890 NA CS 18:00:00 TS 16.70 -77.30 40 hurdat_atl 112 105 O_____________ hurdat_atl AL021890 16.70 -77.30 TS 40 0 8 283
1890 NA CS 21:00:00 TS 16.79 -77.75 119 116 P_____________ AL021890 16.79 -77.75 TS 42 0 9 283
1890 NA CS 1890-08-23 00:00:00 TS 16.90 -78.20 45 hurdat_atl 123 123 O_____________ hurdat_atl AL021890 16.90 -78.20 TS 45 0 8 287
1890 NA CS 03:00:00 TS 17.04 -78.59 135 123 P_____________ AL021890 17.04 -78.59 TS 45 0 8 291
1890 NA CS 06:00:00 TS 17.20 -79.00 45 hurdat_atl 128 128 O_____________ hurdat_atl AL021890 17.20 -79.00 TS 45 0 9 290
1890 NA CS 09:00:00 TS 17.35 -79.49 146 146 P_____________ AL021890 17.35 -79.49 TS 45 0 10 281
1890 NA CS 12:00:00 TS 17.39 -80.00 45 hurdat_atl 191 191 O____________O hurdat_atl AL021890 17.50 -80.00 TS 45 0 16.50 -80.00 TD 30 9 279
1890 NA CS 15:00:00 TS 17.50 -80.45 235 235 P____________P AL021890 17.64 -80.47 TS 45 0 16.91 -80.41 TD 30 9 288
1890 NA CS 18:00:00 TS 17.66 -80.87 45 hurdat_atl 270 270 O____________O hurdat_atl AL021890 17.80 -80.90 TS 45 0 17.30 -80.80 TD 30 9 297
1890 NA CS 21:00:00 TS 17.88 -81.26 308 308 P____________P AL021890 17.99 -81.31 TS 47 0 17.65 -81.15 TD 30 9 303
1890 NA CS 1890-08-24 00:00:00 TS 18.13 -81.63 50 hurdat_atl 338 338 O____________O hurdat_atl AL021890 18.20 -81.70 TS 50 0 18.00 -81.50 TD 30 9 305
1890 NA CS 03:00:00 TS 18.40 -82.03 345 304 P____________P AL021890 18.40 -82.10 TS 50 0 18.40 -81.90 TD 30 9 305
1890 NA CS 06:00:00 TS 18.67 -82.43 50 hurdat_atl 304 279 O____________O hurdat_atl AL021890 18.60 -82.50 TS 50 0 18.80 -82.30 TD 30 9 304
1890 NA CS 09:00:00 TS 18.91 -82.81 279 249 P____________P AL021890 18.78 -82.90 TS 50 0 19.15 -82.64 TD 32 9 305
1890 NA CS 12:00:00 TS 19.17 -83.20 50 hurdat_atl 249 228 O____________O hurdat_atl AL021890 19.00 -83.30 TS 50 0 19.50 -83.00 TS 35 10 308
1890 NA CS 15:00:00 TS 19.49 -83.61 228 211 P____________P AL021890 19.28 -83.70 TS 50 0 19.90 -83.44 TS 37 10 310
1890 NA CS 18:00:00 TS 19.83 -84.03 50 hurdat_atl 216 190 O____________O hurdat_atl AL021890 19.60 -84.10 TS 50 0 20.30 -83.90 TS 40 10 310
1890 NA CS 21:00:00 TS 20.14 -84.45 190 156 P____________P AL021890 19.89 -84.49 TS 50 0 20.65 -84.35 TS 42 10 309
1890 NA CS 1890-08-25 00:00:00 TS 20.47 -84.87 50 hurdat_atl 145 119 O____________O hurdat_atl AL021890 20.20 -84.90 TS 50 0 21.00 -84.80 TS 45 11 310
1890 NA CS 03:00:00 TS 20.83 -85.31 123 103 P____________P AL021890 20.55 -85.34 TS 50 0 21.40 -85.26 TS 45 11 311
1890 NA CS 06:00:00 TS 21.20 -85.77 50 hurdat_atl 93 66 O____________O hurdat_atl AL021890 20.90 -85.80 TS 50 0 21.80 -85.70 TS 45 11 310
1890 NA CS 09:00:00 TS 21.52 -86.20 66 53 P____________P AL021890 21.21 -86.25 TS 50 0 22.13 -86.10 TS 45 10 308
1890 NA GM 12:00:00 TS 21.83 -86.63 50 hurdat_atl 53 49 O____________O hurdat_atl AL021890 21.50 -86.70 TS 50 0 22.50 -86.50 TS 45 11 310
1890 NA GM 15:00:00 TS 22.19 -87.08 78 78 P____________P AL021890 21.80 -87.16 TS 50 0 22.98 -86.94 TS 45 11 311
1890 NA GM 18:00:00 TS 22.57 -87.53 50 hurdat_atl 124 123 O____________O hurdat_atl AL021890 22.10 -87.60 TS 50 0 23.50 -87.40 TS 45 11 312
1890 NA GM 21:00:00 TS 22.94 -87.97 156 156 P____________P AL021890 22.41 -88.01 TS 50 0 24.00 -87.90 TS 45 11 313
1890 NA GM 1890-08-26 00:00:00 TS 23.30 -88.40 50 hurdat_atl 201 201 O____________O hurdat_atl AL021890 22.70 -88.40 TS 50 0 24.50 -88.40 TS 45 10 311
1890 NA GM 03:00:00 TS 23.63 -88.82 235 235 P____________P AL021890 22.93 -88.80 TS 50 0 25.01 -88.86 TS 45 10 311
1890 NA GM 06:00:00 TS 23.97 -89.23 50 hurdat_atl 286 286 O____________O hurdat_atl AL021890 23.20 -89.20 TS 50 0 25.50 -89.30 TS 45 11 314
1890 NA GM 09:00:00 TS 24.37 -89.67 343 343 P____________P AL021890 23.58 -89.62 TS 50 0 25.95 -89.78 TS 45 11 318
1890 NA GM 12:00:00 TS 24.80 -90.07 50 hurdat_atl 399 399 O____________O hurdat_atl AL021890 24.00 -90.00 TS 50 0 26.40 -90.20 TS 45 11 324
1890 NA GM 15:00:00 TS 25.22 -90.35 435 390 P____________P AL021890 24.38 -90.29 TS 50 0 26.89 -90.49 TS 45 10 332
1890 NA GM 18:00:00 TS 25.67 -90.57 50 hurdat_atl 379 335 O____________O hurdat_atl AL021890 24.80 -90.50 TS 50 0 27.40 -90.70 TS 45 10 339
1890 NA GM 21:00:00 TS 26.16 -90.75 323 279 P____________P AL021890 25.28 -90.68 TS 50 0 27.90 -90.90 TS 45 10 343
1890 NA GM 1890-08-27 00:00:00 TS 26.67 -90.90 50 hurdat_atl 267 223 O____________O hurdat_atl AL021890 25.80 -90.80 TS 50 0 28.40 -91.10 TS 45 10 346
1890 NA GM 03:00:00 TS 27.16 -91.03 212 168 P____________P AL021890 26.28 -90.87 TS 50 0 28.91 -91.35 TS 45 10 348
1890 NA GM 06:00:00 TS 27.67 -91.13 50 hurdat_atl 157 107 O____________O hurdat_atl AL021890 26.80 -90.90 TS 50 0 29.40 -91.60 TS 45 11 349
1890 NA GM 09:00:00 TS 28.19 -91.26 107 59 P____________P AL021890 27.34 -90.97 TS 50 0 29.87 -91.84 TS 45 11 351
1890 NA GM 12:00:00 TS 28.77 -91.33 50 hurdat_atl 48 0 O____________O hurdat_atl AL021890 28.00 -91.00 TS 50 0 30.30 -92.00 TS 45 13 359
1890 NA GM 15:00:00 TS 29.45 -91.31 0 0 P____________P AL021890 28.85 -90.94 TS 50 0 30.66 -92.05 TS 42 13 3
1890 NA NA 16:00:00 TS 29.66 -91.28 50 hurdat_atl 0 0 O____________P hurdat_atl AL021890 29.10 -90.90 L TS 50 0 30.78 -92.04 TS 41 11 10
1890 NA NA 18:00:00 TS 30.00 -91.20 40 hurdat_atl 0 0 O____________O hurdat_atl AL021890 29.50 -90.80 TS 40 0 31.00 -92.00 TS 40 13 9
1890 NA NA 21:00:00 TS 30.70 -91.09 0 0 P____________P AL021890 30.37 -90.66 TS 37 0 31.35 -91.94 TS 37 16 6
1890 NA NA 1890-08-28 00:00:00 TS 31.58 -91.02 35 hurdat_atl 0 0 O____________O hurdat_atl AL021890 31.50 -90.50 TS 35 0 31.70 -91.80 TS 35 17 4
1890 NA NA 03:00:00 TS 32.39 -90.94 0 0 P____________P AL021890 32.73 -90.27 TS 32 -1 32.06 -91.61 TS 32 14 8
1890 NA NA 06:00:00 TS 32.93 -90.80 30 hurdat_atl 0 0 O____________O hurdat_atl AL021890 34.00 -90.00 TD 30 -1 32.40 -91.20 TD 30 5 51
1890 NA NA 09:00:00 TS 32.71 -90.47 0 0 _____________P AL021890 TD -1 32.71 -90.47 TD 30 11 87
1890 NA NA 12:00:00 TS 33.00 -89.50 0 0 _____________O 33.00 -89.50 TD 30 18 72
1890 NA NA 15:00:00 TS 33.26 -88.42 0 0 _____________P 33.26 -88.42 TD 30 19 75
1890 NA NA 18:00:00 TS 33.50 -87.30 0 _____________O 33.50 -87.30 TD 30 19 76